createdAt,value
2019-01-12T00:01:07.092Z,20.93
2019-01-12T00:03:36.678Z,20.88
2019-01-12T00:06:06.121Z,20.85
2019-01-12T00:08:35.717Z,20.79
2019-01-12T00:11:05.237Z,20.74
2019-01-12T00:13:34.816Z,20.66
2019-01-12T00:16:04.335Z,20.63
2019-01-12T00:18:33.895Z,20.58
2019-01-12T00:21:03.526Z,20.55
2019-01-12T00:23:33.040Z,20.54
2019-01-12T00:26:02.664Z,20.74
2019-01-12T00:28:32.108Z,20.73
2019-01-12T00:31:01.653Z,20.75
2019-01-12T00:33:31.168Z,20.71
2019-01-12T00:36:00.680Z,20.68
2019-01-12T00:38:30.237Z,20.67
2019-01-12T00:40:59.843Z,20.66
2019-01-12T00:43:30.270Z,20.61
2019-01-12T00:46:00.046Z,20.55
2019-01-12T00:48:29.399Z,20.51
2019-01-12T00:50:58.946Z,20.49
2019-01-12T00:53:28.465Z,20.44
2019-01-12T00:55:58.095Z,20.47
2019-01-12T00:58:27.578Z,20.43
2019-01-12T01:00:57.137Z,20.38
2019-01-12T01:03:26.697Z,20.40
2019-01-12T01:05:56.146Z,20.37
2019-01-12T01:08:25.930Z,20.37
2019-01-12T01:10:55.363Z,20.36
2019-01-12T01:13:25.069Z,20.34
2019-01-12T01:15:54.463Z,20.31
2019-01-12T01:18:24.030Z,20.31
2019-01-12T01:20:53.529Z,20.28
2019-01-12T01:23:23.040Z,20.29
2019-01-12T01:25:52.458Z,20.25
2019-01-12T01:28:22.242Z,20.25
2019-01-12T01:30:51.890Z,20.26
2019-01-12T01:33:27.669Z,20.24
2019-01-12T01:35:52.420Z,20.23
2019-01-12T01:38:21.917Z,20.21
2019-01-12T01:40:51.456Z,20.24
2019-01-12T01:43:20.838Z,20.25
2019-01-12T01:45:50.322Z,20.23
2019-01-12T01:48:19.990Z,20.22
2019-01-12T01:50:49.574Z,20.25
2019-01-12T01:53:19.220Z,20.27
2019-01-12T01:55:48.683Z,20.26
2019-01-12T01:58:18.366Z,20.27
2019-01-12T02:00:47.937Z,20.27
2019-01-12T02:03:17.388Z,20.27
2019-01-12T02:05:47.056Z,20.26
2019-01-12T02:08:17.564Z,20.25
2019-01-12T02:10:47.051Z,20.24
2019-01-12T02:13:16.738Z,20.24
2019-01-12T02:15:46.256Z,20.23
2019-01-12T02:18:15.685Z,20.26
2019-01-12T02:20:45.018Z,20.37
2019-01-12T02:23:14.420Z,20.59
2019-01-12T02:25:44.003Z,20.74
2019-01-12T02:28:13.457Z,20.84
2019-01-12T02:30:42.916Z,20.89
2019-01-12T02:33:12.378Z,20.93
2019-01-12T02:35:41.862Z,20.98
2019-01-12T02:38:11.397Z,21.01
2019-01-12T02:40:40.926Z,21.02
2019-01-12T02:43:10.318Z,21.04
2019-01-12T02:45:39.922Z,21.06
2019-01-12T02:48:09.545Z,21.21
2019-01-12T02:50:38.926Z,21.51
2019-01-12T02:53:08.311Z,21.70
2019-01-12T02:55:37.843Z,21.81
2019-01-12T02:58:10.612Z,21.86
2019-01-12T03:00:39.944Z,21.91
2019-01-12T03:03:09.410Z,21.89
2019-01-12T03:05:38.978Z,21.89
2019-01-12T03:08:08.637Z,21.88
2019-01-12T03:10:38.091Z,21.88
2019-01-12T03:13:07.612Z,21.85
2019-01-12T03:15:36.953Z,21.84
2019-01-12T03:18:06.284Z,21.83
2019-01-12T03:20:35.806Z,21.79
2019-01-12T03:23:05.287Z,21.77
2019-01-12T03:25:34.665Z,21.76
2019-01-12T03:28:04.225Z,21.72
2019-01-12T03:30:36.301Z,21.70
2019-01-12T03:33:04.842Z,21.69
2019-01-12T03:35:34.304Z,21.67
2019-01-12T03:38:03.936Z,21.67
2019-01-12T03:40:33.553Z,21.64
2019-01-12T03:43:03.014Z,21.65
2019-01-12T03:45:32.832Z,21.61
2019-01-12T03:48:02.275Z,21.56
2019-01-12T03:50:31.617Z,21.56
2019-01-12T03:53:01.120Z,21.58
2019-01-12T03:55:30.624Z,21.56
2019-01-12T03:58:01.573Z,21.56
2019-01-12T04:00:31.118Z,21.54
2019-01-12T04:03:00.645Z,21.55
2019-01-12T04:05:30.107Z,21.50
2019-01-12T04:07:59.558Z,21.48
2019-01-12T04:10:29.482Z,21.46
2019-01-12T04:12:59.039Z,21.48
2019-01-12T04:15:28.513Z,21.67
2019-01-12T04:17:58.026Z,21.75
2019-01-12T04:20:27.709Z,21.78
2019-01-12T04:22:57.217Z,21.80
2019-01-12T04:25:33.645Z,21.77
2019-01-12T04:27:57.776Z,21.76
2019-01-12T04:30:27.339Z,21.69
2019-01-12T04:32:56.705Z,21.67
2019-01-12T04:35:26.164Z,21.65
2019-01-12T04:37:55.769Z,21.62
2019-01-12T04:40:25.182Z,21.58
2019-01-12T04:42:54.634Z,21.51
2019-01-12T04:45:24.123Z,21.53
2019-01-12T04:47:53.456Z,21.49
2019-01-12T04:50:23.006Z,21.45
2019-01-12T04:52:52.706Z,21.39
2019-01-12T04:55:22.368Z,21.37
2019-01-12T04:57:51.741Z,21.34
2019-01-12T05:00:21.387Z,21.33
2019-01-12T05:02:50.832Z,21.30
2019-01-12T05:05:20.402Z,21.30
2019-01-12T05:07:49.905Z,21.25
2019-01-12T05:10:19.411Z,21.22
2019-01-12T05:12:49.132Z,21.17
2019-01-12T05:15:18.612Z,21.12
2019-01-12T05:17:48.135Z,21.13
2019-01-12T05:20:19.362Z,21.11
2019-01-12T05:22:48.996Z,21.10
2019-01-12T05:25:18.818Z,21.12
2019-01-12T05:27:48.684Z,21.09
2019-01-12T05:30:20.244Z,21.07
2019-01-12T05:32:49.805Z,21.06
2019-01-12T05:35:19.154Z,21.05
2019-01-12T05:37:48.586Z,21.07
2019-01-12T05:40:18.255Z,21.10
2019-01-12T05:42:47.781Z,21.12
2019-01-12T05:45:17.460Z,21.13
2019-01-12T05:47:46.888Z,21.14
2019-01-12T05:50:16.321Z,21.13
2019-01-12T05:52:45.828Z,21.17
2019-01-12T05:55:15.378Z,21.13
2019-01-12T05:57:44.825Z,21.15
2019-01-12T06:00:19.463Z,21.16
2019-01-12T06:02:49.025Z,21.16
2019-01-12T06:05:18.575Z,21.18
2019-01-12T06:07:48.106Z,21.17
2019-01-12T06:10:17.674Z,21.15
2019-01-12T06:12:47.147Z,21.15
2019-01-12T06:15:16.851Z,21.14
2019-01-12T06:17:46.403Z,21.18
2019-01-12T06:20:16.432Z,21.22
2019-01-12T06:22:46.058Z,21.22
2019-01-12T06:25:15.606Z,21.22
2019-01-12T06:27:45.103Z,21.22
2019-01-12T06:30:17.247Z,21.21
2019-01-12T06:32:46.887Z,21.19
2019-01-12T06:35:16.495Z,21.21
2019-01-12T06:37:46.378Z,21.21
2019-01-12T06:40:17.988Z,21.23
2019-01-12T06:42:47.765Z,21.29
2019-01-12T06:45:18.102Z,21.33
2019-01-12T06:47:47.601Z,21.36
2019-01-12T06:50:18.382Z,21.35
2019-01-12T06:52:48.011Z,21.33
2019-01-12T06:55:17.550Z,21.31
2019-01-12T06:57:47.001Z,21.26
2019-01-12T07:00:18.439Z,21.21
2019-01-12T07:02:48.196Z,21.17
2019-01-12T07:05:17.642Z,21.10
2019-01-12T07:07:47.075Z,21.04
2019-01-12T07:10:16.858Z,21.01
2019-01-12T07:12:46.534Z,20.94
2019-01-12T07:15:16.009Z,20.92
2019-01-12T07:17:45.487Z,20.88
2019-01-12T07:20:16.365Z,20.85
2019-01-12T07:22:46.426Z,20.83
2019-01-12T07:25:15.823Z,20.77
2019-01-12T07:27:45.576Z,20.75
2019-01-12T07:30:20.219Z,20.75
2019-01-12T07:32:49.703Z,20.71
2019-01-12T07:35:19.420Z,20.69
2019-01-12T07:37:48.980Z,20.68
2019-01-12T07:40:18.497Z,20.65
2019-01-12T07:42:48.492Z,20.63
2019-01-12T07:45:18.040Z,20.61
2019-01-12T07:47:47.423Z,20.60
2019-01-12T07:50:17.879Z,20.60
2019-01-12T07:52:47.301Z,20.57
2019-01-12T07:55:16.758Z,20.57
2019-01-12T07:57:46.219Z,20.57
2019-01-12T08:00:18.734Z,20.56
2019-01-12T08:02:50.533Z,20.55
2019-01-12T08:05:20.880Z,20.55
2019-01-12T08:07:50.354Z,20.54
2019-01-12T08:10:24.548Z,20.53
2019-01-12T08:12:53.966Z,20.68
2019-01-12T08:15:23.508Z,21.19
2019-01-12T08:17:53.240Z,21.53
2019-01-12T08:20:23.256Z,21.69
2019-01-12T08:22:53.589Z,21.78
2019-01-12T08:25:23.130Z,21.83
2019-01-12T08:27:52.710Z,21.86
2019-01-12T08:30:22.149Z,21.85
2019-01-12T08:32:51.713Z,21.82
2019-01-12T08:35:21.380Z,21.77
2019-01-12T08:37:50.862Z,21.77
2019-01-12T08:40:20.636Z,21.72
2019-01-12T08:42:50.117Z,21.70
2019-01-12T08:45:19.685Z,21.63
2019-01-12T08:47:49.250Z,21.58
2019-01-12T08:50:19.962Z,21.62
2019-01-12T08:52:49.584Z,21.58
2019-01-12T08:55:19.157Z,21.55
2019-01-12T08:57:48.687Z,21.48
2019-01-12T09:00:22.289Z,21.48
2019-01-12T09:02:51.838Z,21.46
2019-01-12T09:05:21.405Z,21.46
2019-01-12T09:07:50.797Z,21.44
2019-01-12T09:10:23.559Z,21.42
2019-01-12T09:12:52.984Z,21.40
2019-01-12T09:15:23.245Z,21.39
2019-01-12T09:17:52.924Z,21.35
2019-01-12T09:20:22.621Z,21.31
2019-01-12T09:22:52.089Z,21.33
2019-01-12T09:25:21.473Z,21.28
2019-01-12T09:27:50.881Z,21.29
2019-01-12T09:30:23.985Z,21.28
2019-01-12T09:32:53.909Z,21.25
2019-01-12T09:35:23.436Z,21.25
2019-01-12T09:37:53.048Z,21.21
2019-01-12T09:40:23.436Z,21.21
2019-01-12T09:42:53.215Z,21.20
2019-01-12T09:45:23.111Z,21.17
2019-01-12T09:47:52.950Z,21.18
2019-01-12T09:50:22.712Z,21.17
2019-01-12T09:52:52.280Z,21.30
2019-01-12T09:55:21.875Z,21.77
2019-01-12T09:57:51.455Z,22.18
2019-01-12T10:00:27.932Z,22.77
2019-01-12T10:02:59.886Z,23.16
2019-01-12T10:05:29.432Z,23.43
2019-01-12T10:07:59.138Z,23.62
2019-01-12T10:10:28.607Z,23.92
2019-01-12T10:12:58.092Z,23.99
2019-01-12T10:15:27.532Z,23.95
2019-01-12T10:17:57.196Z,23.99
2019-01-12T10:20:26.717Z,23.78
2019-01-12T10:22:56.062Z,23.67
2019-01-12T10:25:25.694Z,23.65
2019-01-12T10:27:55.359Z,23.58
2019-01-12T10:30:26.340Z,23.47
2019-01-12T10:32:55.935Z,23.27
2019-01-12T10:35:25.800Z,23.24
2019-01-12T10:37:55.479Z,23.48
2019-01-12T10:40:24.919Z,23.83
2019-01-12T10:42:54.496Z,24.25
2019-01-12T10:45:25.235Z,24.93
2019-01-12T10:47:56.756Z,25.79
2019-01-12T10:50:31.720Z,27.09
2019-01-12T10:53:01.630Z,27.75
2019-01-12T10:55:31.284Z,28.10
2019-01-12T10:58:01.799Z,28.36
2019-01-12T11:00:36.799Z,28.60
2019-01-12T11:03:06.987Z,29.15
2019-01-12T11:05:36.591Z,29.95
2019-01-12T11:08:06.887Z,30.71
2019-01-12T11:10:36.576Z,31.36
2019-01-12T11:13:06.432Z,31.67
2019-01-12T11:15:36.073Z,31.89
2019-01-12T11:18:06.984Z,32.08
2019-01-12T11:20:36.476Z,32.00
2019-01-12T11:23:06.455Z,32.12
2019-01-12T11:25:42.608Z,32.21
2019-01-12T11:28:07.057Z,32.05
2019-01-12T11:30:36.553Z,32.07
2019-01-12T11:33:06.369Z,32.53
2019-01-12T11:35:35.921Z,32.58
2019-01-12T11:38:05.344Z,32.81
2019-01-12T11:40:35.036Z,32.89
2019-01-12T11:43:04.891Z,33.18
2019-01-12T11:45:34.699Z,33.30
2019-01-12T11:48:04.576Z,33.56
2019-01-12T11:50:34.176Z,33.55
2019-01-12T11:53:04.465Z,33.57
2019-01-12T11:55:34.265Z,33.83
2019-01-12T11:58:04.227Z,34.03
2019-01-12T12:00:33.969Z,34.20
2019-01-12T12:03:03.650Z,34.57
2019-01-12T12:05:33.250Z,35.15
2019-01-12T12:08:03.556Z,35.47
2019-01-12T12:10:33.201Z,35.67
2019-01-12T12:13:03.588Z,35.83
2019-01-12T12:15:33.083Z,36.18
2019-01-12T12:18:02.753Z,36.13
2019-01-12T12:20:32.549Z,36.11
2019-01-12T12:23:02.033Z,35.94
2019-01-12T12:25:31.557Z,35.62
2019-01-12T12:28:01.078Z,35.23
2019-01-12T12:30:31.519Z,34.99
2019-01-12T12:33:01.102Z,34.75
2019-01-12T12:35:37.482Z,34.51
2019-01-12T12:38:01.960Z,34.25
2019-01-12T12:40:31.482Z,34.17
2019-01-12T12:43:00.861Z,34.17
2019-01-12T12:45:34.680Z,33.98
2019-01-12T12:48:04.321Z,33.75
2019-01-12T12:50:33.679Z,33.82
2019-01-12T12:53:03.226Z,33.95
2019-01-12T12:55:32.680Z,34.25
2019-01-12T12:58:02.227Z,34.53
2019-01-12T13:00:33.185Z,34.73
2019-01-12T13:03:03.006Z,34.94
2019-01-12T13:05:32.565Z,35.37
2019-01-12T13:08:02.095Z,35.22
2019-01-12T13:10:32.872Z,35.82
2019-01-12T13:13:02.347Z,36.08
2019-01-12T13:15:31.764Z,35.91
2019-01-12T13:18:01.198Z,35.93
2019-01-12T13:20:30.753Z,35.76
2019-01-12T13:23:00.557Z,35.81
2019-01-12T13:25:30.120Z,35.89
2019-01-12T13:27:59.605Z,36.03
2019-01-12T13:30:29.532Z,35.97
2019-01-12T13:32:59.101Z,35.85
2019-01-12T13:35:28.594Z,35.70
2019-01-12T13:37:57.987Z,35.63
2019-01-12T13:40:29.072Z,35.48
2019-01-12T13:42:58.650Z,35.48
2019-01-12T13:45:28.272Z,35.59
2019-01-12T13:47:57.665Z,35.52
2019-01-12T13:50:28.273Z,36.21
2019-01-12T13:52:57.704Z,36.49
2019-01-12T13:55:27.387Z,36.63
2019-01-12T13:57:56.922Z,35.70
2019-01-12T14:00:31.544Z,35.88
2019-01-12T14:03:01.675Z,35.89
2019-01-12T14:05:31.209Z,35.92
2019-01-12T14:08:01.002Z,35.87
2019-01-12T14:10:30.507Z,35.90
2019-01-12T14:13:00.314Z,35.78
2019-01-12T14:15:29.760Z,35.60
2019-01-12T14:17:59.261Z,35.49
2019-01-12T14:20:34.238Z,35.51
2019-01-12T14:23:03.715Z,35.52
2019-01-12T14:25:33.181Z,35.45
2019-01-12T14:28:02.623Z,35.53
2019-01-12T14:30:32.215Z,35.91
2019-01-12T14:33:01.766Z,36.29
2019-01-12T14:35:31.199Z,36.90
2019-01-12T14:38:01.527Z,37.41
2019-01-12T14:40:31.245Z,37.68
2019-01-12T14:43:00.753Z,38.00
2019-01-12T14:45:34.001Z,38.32
2019-01-12T14:48:03.766Z,38.40
2019-01-12T14:50:33.178Z,38.41
2019-01-12T14:53:02.667Z,38.44
2019-01-12T14:55:32.248Z,38.36
2019-01-12T14:58:02.945Z,38.31
2019-01-12T15:00:32.774Z,38.23
2019-01-12T15:03:02.251Z,38.09
2019-01-12T15:05:32.840Z,38.00
2019-01-12T15:08:02.378Z,37.91
2019-01-12T15:10:32.100Z,37.81
2019-01-12T15:13:01.474Z,37.96
2019-01-12T15:15:30.953Z,37.98
2019-01-12T15:18:00.352Z,37.95
2019-01-12T15:20:31.510Z,37.89
2019-01-12T15:23:01.037Z,37.85
2019-01-12T15:25:30.482Z,37.79
2019-01-12T15:28:01.005Z,37.66
2019-01-12T15:30:31.970Z,37.57
2019-01-12T15:33:03.747Z,37.46
2019-01-12T15:35:34.487Z,37.40
2019-01-12T15:38:03.936Z,37.31
2019-01-12T15:40:33.289Z,37.28
2019-01-12T15:43:02.669Z,37.22
2019-01-12T15:45:32.216Z,37.16
2019-01-12T15:48:01.703Z,37.07
2019-01-12T15:50:31.057Z,37.02
2019-01-12T15:53:01.517Z,36.96
2019-01-12T15:55:31.158Z,36.88
2019-01-12T15:58:00.550Z,36.85
2019-01-12T16:00:30.695Z,36.79
2019-01-12T16:03:00.225Z,36.70
2019-01-12T16:05:30.758Z,36.66
2019-01-12T16:08:00.168Z,36.55
2019-01-12T16:10:29.628Z,36.50
2019-01-12T16:12:59.009Z,36.49
2019-01-12T16:15:28.938Z,36.42
2019-01-12T16:17:58.880Z,36.39
2019-01-12T16:20:34.829Z,36.26
2019-01-12T16:23:05.924Z,35.98
2019-01-12T16:25:35.328Z,35.46
2019-01-12T16:28:04.930Z,35.30
2019-01-12T16:30:34.380Z,35.34
2019-01-12T16:33:03.926Z,35.38
2019-01-12T16:35:33.358Z,35.45
2019-01-12T16:38:02.941Z,35.80
2019-01-12T16:40:32.314Z,36.12
2019-01-12T16:43:01.862Z,36.24
2019-01-12T16:45:31.289Z,36.33
2019-01-12T16:48:00.682Z,36.37
2019-01-12T16:50:30.164Z,36.50
2019-01-12T16:52:59.581Z,36.42
2019-01-12T16:55:29.053Z,36.51
2019-01-12T16:57:58.706Z,36.56
2019-01-12T17:00:31.985Z,36.59
2019-01-12T17:03:01.986Z,36.72
2019-01-12T17:05:31.545Z,36.85
2019-01-12T17:08:00.931Z,37.20
2019-01-12T17:10:30.340Z,37.43
2019-01-12T17:13:01.470Z,37.48
2019-01-12T17:15:34.912Z,37.52
2019-01-12T17:18:02.181Z,37.50
2019-01-12T17:20:31.835Z,37.42
2019-01-12T17:23:03.189Z,37.33
2019-01-12T17:25:32.606Z,37.60
2019-01-12T17:28:02.071Z,37.81
2019-01-12T17:30:31.602Z,38.18
2019-01-12T17:33:01.075Z,38.63
2019-01-12T17:35:30.537Z,39.41
2019-01-12T17:38:00.234Z,39.80
2019-01-12T17:40:29.846Z,40.49
2019-01-12T17:42:59.722Z,40.55
2019-01-12T17:45:29.172Z,41.08
2019-01-12T17:47:58.763Z,41.87
2019-01-12T17:50:29.020Z,41.31
2019-01-12T17:52:58.818Z,40.55
2019-01-12T17:55:29.257Z,40.44
2019-01-12T17:57:59.083Z,40.10
2019-01-12T18:00:39.790Z,39.96
2019-01-12T18:03:09.908Z,39.75
2019-01-12T18:05:39.459Z,39.22
2019-01-12T18:08:09.164Z,39.01
2019-01-12T18:10:38.732Z,38.98
2019-01-12T18:13:08.352Z,38.74
2019-01-12T18:15:38.007Z,38.31
2019-01-12T18:18:07.539Z,38.67
2019-01-12T18:20:37.149Z,38.66
2019-01-12T18:23:07.290Z,38.66
2019-01-12T18:25:37.097Z,39.80
2019-01-12T18:28:06.734Z,39.53
2019-01-12T18:30:36.721Z,39.76
2019-01-12T18:33:08.423Z,40.21
2019-01-12T18:35:37.618Z,40.36
2019-01-12T18:38:07.021Z,40.12
2019-01-12T18:40:37.361Z,40.23
2019-01-12T18:43:06.717Z,41.11
2019-01-12T18:45:36.247Z,41.10
2019-01-12T18:48:06.280Z,40.66
2019-01-12T18:50:35.666Z,40.42
2019-01-12T18:53:05.230Z,40.53
2019-01-12T18:55:34.631Z,40.26
2019-01-12T18:58:04.075Z,40.06
2019-01-12T19:00:33.843Z,40.11
2019-01-12T19:03:03.303Z,39.96
2019-01-12T19:05:32.925Z,39.89
2019-01-12T19:08:02.445Z,39.45
2019-01-12T19:10:32.022Z,39.62
2019-01-12T19:13:01.457Z,39.62
2019-01-12T19:15:32.361Z,39.69
2019-01-12T19:18:01.890Z,39.82
2019-01-12T19:20:31.283Z,40.15
2019-01-12T19:23:00.851Z,40.79
2019-01-12T19:25:30.248Z,41.08
2019-01-12T19:27:59.711Z,40.90
2019-01-12T19:30:29.147Z,40.66
2019-01-12T19:32:58.562Z,40.12
2019-01-12T19:35:28.230Z,39.79
2019-01-12T19:37:57.760Z,39.55
2019-01-12T19:40:27.497Z,39.14
2019-01-12T19:42:56.967Z,38.86
2019-01-12T19:45:26.583Z,38.61
2019-01-12T19:47:56.087Z,38.42
2019-01-12T19:50:28.458Z,38.14
2019-01-12T19:52:58.221Z,37.96
2019-01-12T19:55:27.663Z,37.69
2019-01-12T19:57:58.141Z,37.55
2019-01-12T20:00:32.486Z,37.29
2019-01-12T20:03:02.067Z,37.02
2019-01-12T20:05:31.568Z,36.77
2019-01-12T20:08:01.046Z,36.55
2019-01-12T20:10:30.596Z,36.32
2019-01-12T20:13:00.016Z,36.26
2019-01-12T20:15:29.406Z,36.05
2019-01-12T20:17:58.839Z,35.87
2019-01-12T20:20:28.328Z,36.09
2019-01-12T20:22:57.756Z,36.38
2019-01-12T20:25:29.309Z,36.58
2019-01-12T20:28:18.948Z,36.60
2019-01-12T20:31:16.411Z,36.63
2019-01-12T20:34:19.729Z,36.59
2019-01-12T20:37:20.965Z,36.58
2019-01-12T20:40:24.757Z,36.36
2019-01-12T20:43:27.220Z,36.17
2019-01-12T20:46:41.479Z,35.94
2019-01-12T20:49:15.876Z,35.76
2019-01-12T20:52:20.507Z,35.25
2019-01-12T20:55:28.537Z,34.65
2019-01-12T20:58:19.479Z,34.10
2019-01-12T21:01:20.354Z,33.55
2019-01-12T21:04:14.650Z,33.32
2019-01-12T21:07:27.716Z,33.44
2019-01-12T21:10:34.751Z,33.38
2019-01-12T21:13:44.370Z,33.10
2019-01-12T21:16:18.258Z,32.85
2019-01-12T21:18:47.718Z,33.05
2019-01-12T21:21:17.209Z,33.56
2019-01-12T21:23:46.581Z,33.72
2019-01-12T21:26:16.064Z,33.84
2019-01-12T21:28:45.609Z,34.30
2019-01-12T21:31:15.422Z,34.73
2019-01-12T21:33:44.852Z,34.84
2019-01-12T21:36:14.290Z,34.72
2019-01-12T21:38:44.649Z,34.69
2019-01-12T21:41:14.059Z,34.58
2019-01-12T21:43:43.491Z,34.75
2019-01-12T21:46:12.905Z,34.79
2019-01-12T21:48:42.415Z,34.64
2019-01-12T21:51:11.955Z,34.60
2019-01-12T21:53:41.417Z,34.34
2019-01-12T21:56:10.858Z,34.35
2019-01-12T21:58:40.308Z,34.26
2019-01-12T22:01:09.798Z,34.55
2019-01-12T22:03:39.258Z,34.45
2019-01-12T22:06:08.737Z,34.25
2019-01-12T22:08:38.170Z,34.12
2019-01-12T22:11:07.663Z,34.07
2019-01-12T22:13:37.086Z,33.95
2019-01-12T22:16:06.566Z,33.90
2019-01-12T22:18:35.995Z,33.74
2019-01-12T22:21:05.683Z,33.55
2019-01-12T22:23:35.158Z,33.50
2019-01-12T22:26:04.702Z,33.52
2019-01-12T22:28:34.133Z,33.45
2019-01-12T22:31:03.620Z,33.26
2019-01-12T22:33:32.997Z,33.10
2019-01-12T22:36:02.493Z,33.03
2019-01-12T22:38:31.955Z,32.95
2019-01-12T22:41:01.415Z,32.87
2019-01-12T22:43:30.836Z,32.67
2019-01-12T22:46:00.312Z,32.53
2019-01-12T22:48:29.823Z,32.42
2019-01-12T22:50:59.242Z,32.36
2019-01-12T22:53:28.659Z,32.36
2019-01-12T22:55:58.132Z,32.31
2019-01-12T22:58:27.533Z,31.87
2019-01-12T23:01:28.494Z,31.65
2019-01-12T23:03:58.042Z,31.40
2019-01-12T23:06:27.462Z,31.34
2019-01-12T23:08:56.865Z,31.23
2019-01-12T23:11:26.249Z,31.06
2019-01-12T23:13:55.674Z,30.97
2019-01-12T23:16:25.053Z,30.88
2019-01-12T23:18:54.659Z,30.70
2019-01-12T23:21:24.353Z,30.60
2019-01-12T23:23:53.786Z,30.56
2019-01-12T23:26:23.381Z,30.51
2019-01-12T23:28:52.796Z,30.44
2019-01-12T23:31:22.253Z,30.32
2019-01-12T23:33:51.775Z,30.23
2019-01-12T23:36:21.345Z,30.13
2019-01-12T23:38:50.782Z,30.00
2019-01-12T23:41:20.268Z,29.89
2019-01-12T23:43:49.771Z,30.05
2019-01-12T23:46:19.159Z,30.18
2019-01-12T23:48:48.634Z,30.39
2019-01-12T23:51:18.079Z,30.69
2019-01-12T23:53:47.450Z,30.90
2019-01-12T23:56:17.262Z,31.03
2019-01-12T23:58:46.664Z,31.08
